createdAt,value
2017-05-02T00:00:54.840Z,12.73
2017-05-02T00:03:49.209Z,12.71
2017-05-02T00:06:43.757Z,12.68
2017-05-02T00:09:38.210Z,12.64
2017-05-02T00:12:32.687Z,12.61
2017-05-02T00:15:27.262Z,12.58
2017-05-02T00:18:21.703Z,12.54
2017-05-02T00:21:16.176Z,12.51
2017-05-02T00:24:10.587Z,12.47
2017-05-02T00:27:05.092Z,12.44
2017-05-02T00:29:59.500Z,12.41
2017-05-02T00:32:53.927Z,12.40
2017-05-02T00:35:48.403Z,12.39
2017-05-02T00:38:42.758Z,12.36
2017-05-02T00:41:37.437Z,12.33
2017-05-02T00:44:32.069Z,12.30
2017-05-02T00:50:20.870Z,12.26
2017-05-02T00:53:15.351Z,12.24
2017-05-02T00:56:09.916Z,12.22
2017-05-02T00:59:04.159Z,12.19
2017-05-02T01:01:58.581Z,12.18
2017-05-02T01:04:53.014Z,12.14
2017-05-02T01:07:47.456Z,12.12
2017-05-02T01:10:41.878Z,12.08
2017-05-02T01:13:36.326Z,12.06
2017-05-02T01:16:30.896Z,12.04
2017-05-02T01:19:25.307Z,12.01
2017-05-02T01:22:19.614Z,11.99
2017-05-02T01:28:08.411Z,11.92
2017-05-02T01:31:02.834Z,11.89
2017-05-02T01:33:57.257Z,11.88
2017-05-02T01:36:51.727Z,11.87
2017-05-02T01:39:46.341Z,11.85
2017-05-02T01:42:40.673Z,11.83
2017-05-02T01:45:35.087Z,11.79
2017-05-02T01:48:29.399Z,11.77
2017-05-02T01:51:23.748Z,11.74
2017-05-02T01:54:18.153Z,11.70
2017-05-02T01:57:12.422Z,11.67
2017-05-02T02:00:06.762Z,11.64
2017-05-02T02:03:01.453Z,11.60
2017-05-02T02:05:55.841Z,11.56
2017-05-02T02:08:50.275Z,11.51
2017-05-02T02:14:38.841Z,11.43
2017-05-02T02:20:27.447Z,11.33
2017-05-02T02:23:21.819Z,11.29
2017-05-02T02:26:16.244Z,11.26
2017-05-02T02:29:10.613Z,11.22
2017-05-02T02:32:04.921Z,11.17
2017-05-02T02:34:59.202Z,11.15
2017-05-02T02:37:53.564Z,11.13
2017-05-02T02:43:42.106Z,11.05
2017-05-02T02:46:36.419Z,11.03
2017-05-02T02:49:30.772Z,11.00
2017-05-02T02:52:25.035Z,10.96
2017-05-02T02:55:19.384Z,10.94
2017-05-02T02:58:13.689Z,10.93
2017-05-02T03:01:08.011Z,10.90
2017-05-02T03:06:56.645Z,10.86
2017-05-02T03:09:51.149Z,10.85
2017-05-02T03:12:45.514Z,10.82
2017-05-02T03:15:40.005Z,10.78
2017-05-02T03:21:28.626Z,10.73
2017-05-02T03:24:22.899Z,10.71
2017-05-02T03:27:17.212Z,10.68
2017-05-02T03:30:11.547Z,10.65
2017-05-02T03:33:05.808Z,10.62
2017-05-02T03:36:00.228Z,10.58
2017-05-02T03:38:54.594Z,10.56
2017-05-02T03:41:48.882Z,10.52
2017-05-02T03:44:43.200Z,10.49
2017-05-02T03:47:37.455Z,10.46
2017-05-02T03:50:31.928Z,10.41
2017-05-02T03:53:26.396Z,10.41
2017-05-02T03:56:20.713Z,10.40
2017-05-02T03:59:15.034Z,10.41
2017-05-02T04:02:09.239Z,10.39
2017-05-02T04:05:03.636Z,10.38
2017-05-02T04:10:52.130Z,10.39
2017-05-02T04:16:40.667Z,10.36
2017-05-02T04:19:35.112Z,10.34
2017-05-02T04:22:29.353Z,10.35
2017-05-02T04:25:23.634Z,10.34
2017-05-02T04:28:17.891Z,10.34
2017-05-02T04:31:12.126Z,10.32
2017-05-02T04:34:06.447Z,10.34
2017-05-02T04:37:00.646Z,10.35
2017-05-02T04:42:49.257Z,10.33
2017-05-02T04:45:43.453Z,10.34
2017-05-02T04:48:37.699Z,10.33
2017-05-02T04:51:31.967Z,10.33
2017-05-02T04:57:20.458Z,10.35
2017-05-02T05:00:14.698Z,10.37
2017-05-02T05:03:08.905Z,10.37
2017-05-02T05:06:03.099Z,10.39
2017-05-02T05:08:57.416Z,10.44
2017-05-02T05:11:51.854Z,10.46
2017-05-02T05:14:46.072Z,10.49
2017-05-02T05:17:40.398Z,10.50
2017-05-02T05:20:34.667Z,10.51
2017-05-02T05:23:29.419Z,10.51
2017-05-02T05:26:23.797Z,10.53
2017-05-02T05:29:18.183Z,10.55
2017-05-02T05:32:12.446Z,10.58
2017-05-02T05:35:06.743Z,10.60
2017-05-02T05:38:01.045Z,10.66
2017-05-02T05:40:55.298Z,10.73
2017-05-02T05:43:49.586Z,10.78
2017-05-02T05:46:43.843Z,10.82
2017-05-02T05:49:38.153Z,10.91
2017-05-02T05:58:21.051Z,11.30
2017-05-02T06:01:15.404Z,11.43
2017-05-02T06:04:09.852Z,11.58
2017-05-02T06:07:04.131Z,11.75
2017-05-02T06:09:58.698Z,11.95
2017-05-02T06:12:53.178Z,12.13
2017-05-02T06:15:47.494Z,12.30
2017-05-02T06:21:36.467Z,12.78
2017-05-02T06:24:31.043Z,13.00
2017-05-02T06:27:25.586Z,13.03
2017-05-02T06:30:20.075Z,13.09
2017-05-02T06:33:14.517Z,13.12
2017-05-02T06:36:09.058Z,13.15
2017-05-02T06:39:03.419Z,13.19
2017-05-02T06:41:57.919Z,13.16
2017-05-02T06:44:52.518Z,12.98
2017-05-02T06:47:46.889Z,12.88
2017-05-02T06:50:41.341Z,12.83
2017-05-02T06:53:35.814Z,12.82
2017-05-02T06:56:30.275Z,12.83
2017-05-02T06:59:24.733Z,12.91
2017-05-02T07:02:19.030Z,12.91
2017-05-02T07:05:13.389Z,12.88
2017-05-02T07:08:07.754Z,12.82
2017-05-02T07:13:56.648Z,12.75
2017-05-02T07:16:51.081Z,12.72
2017-05-02T07:19:45.485Z,12.72
2017-05-02T07:22:39.848Z,12.67
2017-05-02T07:25:34.122Z,12.59
2017-05-02T07:28:28.465Z,12.60
2017-05-02T07:31:22.912Z,12.59
2017-05-02T07:34:17.402Z,12.61
2017-05-02T07:37:11.784Z,12.56
2017-05-02T07:40:06.188Z,12.51
2017-05-02T07:43:00.559Z,12.48
2017-05-02T07:45:55.019Z,12.49
2017-05-02T07:48:49.285Z,12.51
2017-05-02T07:51:43.730Z,12.49
2017-05-02T07:54:38.212Z,12.47
2017-05-02T07:57:32.613Z,12.45
2017-05-02T08:00:27.006Z,12.43
2017-05-02T08:03:21.279Z,12.44
2017-05-02T08:06:15.667Z,12.50
2017-05-02T08:09:09.996Z,12.52
2017-05-02T08:12:04.407Z,12.56
2017-05-02T08:14:58.824Z,12.56
2017-05-02T08:17:53.294Z,12.54
2017-05-02T08:20:47.624Z,12.53
2017-05-02T08:23:42.072Z,12.57
2017-05-02T08:26:36.499Z,12.62
2017-05-02T08:29:30.971Z,12.65
2017-05-02T08:32:25.458Z,12.64
2017-05-02T08:35:19.821Z,12.66
2017-05-02T08:38:14.277Z,12.70
2017-05-02T08:41:08.722Z,12.69
2017-05-02T08:44:03.220Z,12.67
2017-05-02T08:46:57.655Z,12.64
2017-05-02T08:49:52.237Z,12.64
2017-05-02T08:52:46.734Z,12.62
2017-05-02T08:55:41.113Z,12.58
2017-05-02T08:58:35.538Z,12.64
2017-05-02T09:01:29.958Z,12.68
2017-05-02T09:04:24.395Z,12.69
2017-05-02T09:07:18.717Z,12.68
2017-05-02T09:10:13.207Z,12.68
2017-05-02T09:13:07.656Z,12.66
2017-05-02T09:16:01.958Z,12.65
2017-05-02T09:18:56.380Z,12.64
2017-05-02T09:21:50.815Z,12.63
2017-05-02T09:24:45.175Z,12.67
2017-05-02T09:27:39.559Z,12.71
2017-05-02T09:30:34.022Z,12.76
2017-05-02T09:33:28.508Z,12.79
2017-05-02T09:39:17.331Z,12.86
2017-05-02T09:42:11.824Z,12.87
2017-05-02T09:45:06.205Z,12.84
2017-05-02T09:50:55.158Z,12.78
2017-05-02T09:53:49.488Z,12.84
2017-05-02T09:56:43.899Z,12.90
2017-05-02T09:59:38.308Z,12.93
2017-05-02T10:02:32.665Z,12.95
2017-05-02T10:05:26.936Z,12.94
2017-05-02T10:08:21.322Z,12.94
2017-05-02T10:11:15.731Z,12.93
2017-05-02T10:14:10.106Z,12.95
2017-05-02T10:17:04.494Z,12.95
2017-05-02T10:19:58.836Z,12.93
2017-05-02T10:22:53.228Z,12.95
2017-05-02T10:28:41.940Z,12.98
2017-05-02T10:31:36.298Z,12.98
2017-05-02T10:34:30.718Z,12.97
2017-05-02T10:37:25.119Z,12.97
2017-05-02T10:40:19.549Z,12.96
2017-05-02T10:43:13.864Z,12.98
2017-05-02T10:46:08.406Z,13.02
2017-05-02T10:49:02.791Z,13.03
2017-05-02T10:51:57.331Z,13.07
2017-05-02T10:54:51.789Z,13.11
2017-05-02T10:57:46.245Z,13.22
2017-05-02T11:00:40.739Z,13.29
2017-05-02T11:03:35.171Z,13.32
2017-05-02T11:06:29.681Z,13.34
2017-05-02T11:09:24.157Z,13.35
2017-05-02T11:12:18.391Z,13.40
2017-05-02T11:15:12.837Z,13.41
2017-05-02T11:18:07.420Z,13.36
2017-05-02T11:21:01.868Z,13.31
2017-05-02T11:23:56.244Z,13.22
2017-05-02T11:26:50.645Z,13.15
2017-05-02T11:29:45.108Z,13.11
2017-05-02T11:32:39.401Z,13.08
2017-05-02T11:35:33.786Z,13.05
2017-05-02T11:38:28.169Z,12.99
2017-05-02T11:41:22.576Z,12.94
2017-05-02T11:44:16.985Z,12.84
2017-05-02T11:47:11.309Z,12.83
2017-05-02T11:50:05.630Z,12.77
2017-05-02T11:52:59.996Z,12.71
2017-05-02T11:55:54.479Z,12.67
2017-05-02T11:58:48.810Z,12.60
2017-05-02T12:01:43.197Z,12.50
2017-05-02T12:04:37.451Z,12.35
2017-05-02T12:07:31.669Z,12.26
2017-05-02T12:10:26.044Z,12.18
2017-05-02T12:13:20.283Z,12.13
2017-05-02T12:16:14.587Z,12.08
2017-05-02T12:19:08.965Z,11.99
2017-05-02T12:22:03.382Z,11.92
2017-05-02T12:24:57.564Z,11.89
2017-05-02T12:30:46.374Z,11.82
2017-05-02T12:33:41.227Z,11.78
2017-05-02T12:36:35.568Z,11.83
2017-05-02T12:39:30.358Z,11.87
2017-05-02T12:42:24.707Z,11.92
2017-05-02T12:45:19.068Z,11.88
2017-05-02T12:48:13.348Z,11.90
2017-05-02T12:51:07.719Z,11.91
2017-05-02T12:54:02.091Z,11.89
2017-05-02T12:56:56.433Z,11.87
2017-05-02T12:59:50.694Z,11.83
2017-05-02T13:02:45.021Z,11.82
2017-05-02T13:05:39.406Z,11.79
2017-05-02T13:08:33.811Z,11.76
2017-05-02T13:11:28.068Z,11.75
2017-05-02T13:14:22.384Z,11.72
2017-05-02T13:17:16.683Z,11.66
2017-05-02T13:20:11.038Z,11.64
2017-05-02T13:23:05.955Z,11.60
2017-05-02T13:25:59.546Z,11.55
2017-05-02T13:31:48.365Z,11.53
2017-05-02T13:34:42.772Z,11.52
2017-05-02T13:37:37.099Z,11.57
2017-05-02T13:40:31.350Z,11.60
2017-05-02T13:43:25.694Z,11.60
2017-05-02T13:46:20.112Z,11.52
2017-05-02T13:49:14.467Z,11.55
2017-05-02T13:52:08.646Z,11.58
2017-05-02T13:55:02.995Z,11.55
2017-05-02T13:57:57.218Z,11.57
2017-05-02T14:00:51.581Z,11.56
2017-05-02T14:03:45.944Z,11.53
2017-05-02T14:06:40.426Z,11.53
2017-05-02T14:09:34.754Z,11.58
2017-05-02T14:12:29.134Z,11.58
2017-05-02T14:15:23.524Z,11.54
2017-05-02T14:18:18.141Z,11.51
2017-05-02T14:21:12.418Z,11.45
2017-05-02T14:24:06.804Z,11.45
2017-05-02T14:27:01.196Z,11.43
2017-05-02T14:29:55.427Z,11.43
2017-05-02T14:32:49.779Z,11.45
2017-05-02T14:35:44.114Z,11.44
2017-05-02T14:38:38.386Z,11.46
2017-05-02T14:41:32.645Z,11.45
2017-05-02T14:44:27.019Z,11.47
2017-05-02T14:47:21.274Z,11.47
2017-05-02T14:50:15.764Z,11.48
2017-05-02T14:53:10.053Z,11.48
2017-05-02T14:56:04.405Z,11.46
2017-05-02T14:58:58.709Z,11.45
2017-05-02T15:01:53.040Z,11.40
2017-05-02T15:04:47.459Z,11.37
2017-05-02T15:07:41.684Z,11.36
2017-05-02T15:10:36.053Z,11.35
2017-05-02T15:13:30.377Z,11.37
2017-05-02T15:16:24.717Z,11.37
2017-05-02T15:19:19.066Z,11.35
2017-05-02T15:22:13.381Z,11.34
2017-05-02T15:25:07.628Z,11.35
2017-05-02T15:28:01.859Z,11.35
2017-05-02T15:30:56.219Z,11.33
2017-05-02T15:33:50.722Z,11.36
2017-05-02T15:36:45.202Z,11.42
2017-05-02T15:39:39.428Z,11.48
2017-05-02T15:42:33.748Z,11.51
2017-05-02T15:45:28.195Z,11.61
2017-05-02T15:48:22.691Z,11.77
2017-05-02T15:51:17.217Z,11.87
2017-05-02T15:54:11.575Z,11.87
2017-05-02T15:57:06.029Z,11.84
2017-05-02T16:00:00.514Z,11.80
2017-05-02T16:02:54.990Z,11.83
2017-05-02T16:05:49.462Z,11.86
2017-05-02T16:11:38.074Z,11.85
2017-05-02T16:17:26.871Z,11.90
2017-05-02T16:20:21.199Z,11.91
2017-05-02T16:26:09.963Z,11.90
2017-05-02T16:29:04.299Z,11.86
2017-05-02T16:31:58.610Z,11.83
2017-05-02T16:34:52.896Z,11.82
2017-05-02T16:37:47.256Z,11.85
2017-05-02T16:43:36.045Z,11.82
2017-05-02T16:46:30.386Z,11.82
2017-05-02T16:49:24.815Z,11.80
2017-05-02T16:52:19.148Z,11.82
2017-05-02T16:55:13.502Z,11.82
2017-05-02T16:58:07.906Z,11.82
2017-05-02T17:01:02.244Z,11.81
2017-05-02T17:03:56.634Z,11.76
2017-05-02T17:06:51.059Z,11.76
2017-05-02T17:09:45.373Z,11.78
2017-05-02T17:12:39.687Z,11.79
2017-05-02T17:15:34.027Z,11.78
2017-05-02T17:18:28.412Z,11.77
2017-05-02T17:21:22.705Z,11.75
2017-05-02T17:24:17.006Z,11.74
2017-05-02T17:27:11.282Z,11.74
2017-05-02T17:30:05.610Z,11.75
2017-05-02T17:33:00.061Z,11.75
2017-05-02T17:35:54.315Z,11.73
2017-05-02T17:44:37.419Z,11.67
2017-05-02T17:47:31.897Z,11.67
2017-05-02T17:50:26.171Z,11.65
2017-05-02T17:53:20.449Z,11.60
2017-05-02T17:56:14.751Z,11.54
2017-05-02T17:59:09.121Z,11.50
2017-05-02T18:02:03.483Z,11.48
2017-05-02T18:04:57.964Z,11.45
2017-05-02T18:07:52.233Z,11.44
2017-05-02T18:10:46.605Z,11.45
2017-05-02T18:13:41.228Z,11.45
2017-05-02T18:16:35.571Z,11.43
2017-05-02T18:22:24.052Z,11.42
2017-05-02T18:25:18.333Z,11.40
2017-05-02T18:28:12.647Z,11.40
2017-05-02T18:31:06.882Z,11.39
2017-05-02T18:34:01.326Z,11.38
2017-05-02T18:36:55.572Z,11.37
2017-05-02T18:39:49.801Z,11.37
2017-05-02T18:42:44.017Z,11.37
2017-05-02T18:45:38.475Z,11.37
2017-05-02T18:48:32.877Z,11.36
2017-05-02T18:51:27.147Z,11.35
2017-05-02T18:54:21.489Z,11.37
2017-05-02T18:57:15.776Z,11.37
2017-05-02T19:00:10.133Z,11.37
2017-05-02T19:03:04.500Z,11.35
2017-05-02T19:05:58.837Z,11.34
2017-05-02T19:08:53.155Z,11.35
2017-05-02T19:11:47.502Z,11.33
2017-05-02T19:14:41.828Z,11.33
2017-05-02T19:17:36.205Z,11.34
2017-05-02T19:20:30.482Z,11.35
2017-05-02T19:23:24.968Z,11.36
2017-05-02T19:26:19.080Z,11.37
2017-05-02T19:29:13.330Z,11.35
2017-05-02T19:32:07.644Z,11.34
2017-05-02T19:35:01.839Z,11.34
2017-05-02T19:37:56.171Z,11.33
2017-05-02T19:40:50.499Z,11.31
2017-05-02T19:46:39.180Z,11.29
2017-05-02T19:49:33.398Z,11.30
2017-05-02T19:52:27.764Z,11.30
2017-05-02T19:55:22.031Z,11.31
2017-05-02T19:58:16.316Z,11.32
2017-05-02T20:01:10.615Z,11.32
2017-05-02T20:04:04.941Z,11.32
2017-05-02T20:06:59.808Z,11.32
2017-05-02T20:12:48.314Z,11.35
2017-05-02T20:15:42.631Z,11.34
2017-05-02T20:18:36.964Z,11.33
2017-05-02T20:21:31.324Z,11.33
2017-05-02T20:24:25.603Z,11.33
2017-05-02T20:27:19.996Z,11.38
2017-05-02T20:30:14.233Z,11.37
2017-05-02T20:33:08.552Z,11.38
2017-05-02T20:36:02.806Z,11.35
2017-05-02T20:38:57.024Z,11.34
2017-05-02T20:41:51.330Z,11.34
2017-05-02T20:44:45.652Z,11.35
2017-05-02T20:47:39.931Z,11.35
2017-05-02T20:50:34.328Z,11.32
2017-05-02T20:53:28.638Z,11.34
2017-05-02T20:56:22.988Z,11.33
2017-05-02T20:59:17.290Z,11.31
2017-05-02T21:02:11.636Z,11.31
2017-05-02T21:05:05.836Z,11.30
2017-05-02T21:08:00.087Z,11.28
2017-05-02T21:10:54.431Z,11.28
2017-05-02T21:13:48.676Z,11.29
2017-05-02T21:19:37.390Z,11.31
2017-05-02T21:22:31.691Z,11.31
2017-05-02T21:25:25.997Z,11.30
2017-05-02T21:28:20.346Z,11.30
2017-05-02T21:31:14.566Z,11.31
2017-05-02T21:34:08.872Z,11.31
2017-05-02T21:37:03.193Z,11.30
2017-05-02T21:39:57.646Z,11.31
2017-05-02T21:45:46.135Z,11.32
2017-05-02T21:48:40.485Z,11.31
2017-05-02T21:51:35.061Z,11.32
2017-05-02T21:54:29.369Z,11.32
2017-05-02T21:57:23.689Z,11.31
2017-05-02T22:03:12.275Z,11.32
2017-05-02T22:06:06.611Z,11.32
2017-05-02T22:09:00.947Z,11.32
2017-05-02T22:11:55.240Z,11.31
2017-05-02T22:14:49.547Z,11.30
2017-05-02T22:17:43.786Z,11.29
2017-05-02T22:20:37.937Z,11.31
2017-05-02T22:29:20.980Z,11.31
2017-05-02T22:32:15.236Z,11.29
2017-05-02T22:35:09.569Z,11.26
2017-05-02T22:38:03.912Z,11.25
2017-05-02T22:40:58.084Z,11.24
2017-05-02T22:43:52.275Z,11.25
2017-05-02T22:46:46.548Z,11.24
2017-05-02T22:49:40.811Z,11.24
2017-05-02T22:52:34.994Z,11.25
2017-05-02T22:55:29.349Z,11.25
2017-05-02T22:58:23.678Z,11.26
2017-05-02T23:01:18.002Z,11.28
2017-05-02T23:04:12.370Z,11.31
2017-05-02T23:07:06.624Z,11.32
2017-05-02T23:10:00.837Z,11.33
2017-05-02T23:18:44.107Z,11.37
2017-05-02T23:21:38.482Z,11.38
2017-05-02T23:24:32.894Z,11.36
2017-05-02T23:27:27.122Z,11.33
2017-05-02T23:30:21.464Z,11.31
2017-05-02T23:33:15.744Z,11.26
2017-05-02T23:36:10.575Z,11.23
2017-05-02T23:39:04.838Z,11.20
2017-05-02T23:41:59.201Z,11.19
2017-05-02T23:44:53.501Z,11.19
2017-05-02T23:47:47.840Z,11.20
2017-05-02T23:50:42.118Z,11.23
2017-05-02T23:53:36.362Z,11.22
2017-05-02T23:56:30.702Z,11.23
2017-05-02T23:59:25.050Z,11.19
